sensor_id;sensor_type;location;lat;lon;timestamp;P1;durP1;ratioP1;P2;durP2;ratioP2
19262;SDS011;9765;52.354;20.884;2023-04-24T04:02:15;20.37;;;10.43;;
19262;SDS011;9765;52.354;20.884;2023-04-24T04:04:42;25.70;;;11.73;;
19262;SDS011;9765;52.354;20.884;2023-04-24T04:07:09;33.57;;;13.23;;
19262;SDS011;9765;52.354;20.884;2023-04-24T04:09:36;22.87;;;12.83;;
19262;SDS011;9765;52.354;20.884;2023-04-24T04:12:03;29.30;;;13.17;;
19262;SDS011;9765;52.354;20.884;2023-04-24T04:14:29;23.27;;;11.47;;
19262;SDS011;9765;52.354;20.884;2023-04-24T04:16:56;22.90;;;11.57;;
19262;SDS011;9765;52.354;20.884;2023-04-24T04:19:27;23.30;;;11.40;;
19262;SDS011;9765;52.354;20.884;2023-04-24T04:21:53;21.67;;;11.13;;
19262;SDS011;9765;52.354;20.884;2023-04-24T04:24:21;34.93;;;11.67;;
19262;SDS011;9765;52.354;20.884;2023-04-24T04:26:49;22.73;;;11.47;;
19262;SDS011;9765;52.354;20.884;2023-04-24T04:29:17;19.30;;;10.33;;
19262;SDS011;9765;52.354;20.884;2023-04-24T04:31:44;30.57;;;10.43;;
19262;SDS011;9765;52.354;20.884;2023-04-24T04:34:11;50.60;;;12.63;;
19262;SDS011;9765;52.354;20.884;2023-04-24T04:36:40;31.00;;;15.33;;
19262;SDS011;9765;52.354;20.884;2023-04-24T04:39:07;29.27;;;10.87;;
19262;SDS011;9765;52.354;20.884;2023-04-24T04:41:34;28.80;;;11.60;;
19262;SDS011;9765;52.354;20.884;2023-04-24T04:44:02;31.93;;;11.33;;
19262;SDS011;9765;52.354;20.884;2023-04-24T04:46:30;30.10;;;11.03;;
19262;SDS011;9765;52.354;20.884;2023-04-24T04:48:59;35.00;;;11.27;;
19262;SDS011;9765;52.354;20.884;2023-04-24T04:51:26;35.63;;;11.77;;
19262;SDS011;9765;52.354;20.884;2023-04-24T04:53:54;27.00;;;10.97;;
19262;SDS011;9765;52.354;20.884;2023-04-24T04:56:21;35.67;;;10.73;;
19262;SDS011;9765;52.354;20.884;2023-04-24T04:58:47;34.27;;;10.37;;
19262;SDS011;9765;52.354;20.884;2023-04-24T05:01:14;26.00;;;10.93;;
19262;SDS011;9765;52.354;20.884;2023-04-24T05:03:41;23.23;;;10.70;;
19262;SDS011;9765;52.354;20.884;2023-04-24T05:06:08;27.30;;;10.03;;
19262;SDS011;9765;52.354;20.884;2023-04-24T05:08:34;27.73;;;10.07;;
19262;SDS011;9765;52.354;20.884;2023-04-24T05:11:03;26.10;;;9.50;;
19262;SDS011;9765;52.354;20.884;2023-04-24T05:13:29;34.77;;;10.70;;
19262;SDS011;9765;52.354;20.884;2023-04-24T05:15:57;28.80;;;9.63;;
19262;SDS011;9765;52.354;20.884;2023-04-24T05:18:24;23.50;;;9.63;;
19262;SDS011;9765;52.354;20.884;2023-04-24T05:20:50;24.43;;;9.60;;
19262;SDS011;9765;52.354;20.884;2023-04-24T05:23:17;45.13;;;10.83;;
19262;SDS011;9765;52.354;20.884;2023-04-24T05:25:44;35.97;;;10.87;;
19262;SDS011;9765;52.354;20.884;2023-04-24T05:28:12;27.63;;;9.77;;
19262;SDS011;9765;52.354;20.884;2023-04-24T05:30:40;26.73;;;8.87;;
19262;SDS011;9765;52.354;20.884;2023-04-24T05:33:07;33.67;;;9.83;;
19262;SDS011;9765;52.354;20.884;2023-04-24T05:35:34;21.27;;;8.83;;
19262;SDS011;9765;52.354;20.884;2023-04-24T05:38:01;25.17;;;8.37;;
19262;SDS011;9765;52.354;20.884;2023-04-24T05:40:28;27.40;;;9.17;;
19262;SDS011;9765;52.354;20.884;2023-04-24T05:42:55;20.23;;;8.40;;
19262;SDS011;9765;52.354;20.884;2023-04-24T05:45:23;26.70;;;9.83;;
19262;SDS011;9765;52.354;20.884;2023-04-24T05:47:50;20.53;;;8.20;;
19262;SDS011;9765;52.354;20.884;2023-04-24T05:50:17;22.83;;;8.50;;
19262;SDS011;9765;52.354;20.884;2023-04-24T05:52:44;28.93;;;9.17;;
19262;SDS011;9765;52.354;20.884;2023-04-24T05:55:10;23.10;;;8.10;;
19262;SDS011;9765;52.354;20.884;2023-04-24T05:57:38;19.20;;;8.20;;
19262;SDS011;9765;52.354;20.884;2023-04-24T06:00:05;29.57;;;9.50;;
19262;SDS011;9765;52.354;20.884;2023-04-24T06:02:34;22.93;;;8.37;;
19262;SDS011;9765;52.354;20.884;2023-04-24T06:05:01;29.23;;;9.03;;
19262;SDS011;9765;52.354;20.884;2023-04-24T06:07:29;29.87;;;9.43;;
19262;SDS011;9765;52.354;20.884;2023-04-24T06:09:56;24.20;;;8.70;;
19262;SDS011;9765;52.354;20.884;2023-04-24T06:12:23;25.50;;;8.13;;
19262;SDS011;9765;52.354;20.884;2023-04-24T06:14:51;21.10;;;8.00;;
19262;SDS011;9765;52.354;20.884;2023-04-24T06:17:17;23.53;;;9.10;;
19262;SDS011;9765;52.354;20.884;2023-04-24T06:19:46;23.40;;;8.67;;
19262;SDS011;9765;52.354;20.884;2023-04-24T06:22:13;32.93;;;9.13;;
19262;SDS011;9765;52.354;20.884;2023-04-24T06:24:40;34.77;;;9.67;;
19262;SDS011;9765;52.354;20.884;2023-04-24T06:27:07;33.00;;;9.53;;
19262;SDS011;9765;52.354;20.884;2023-04-24T06:29:33;26.83;;;9.00;;
19262;SDS011;9765;52.354;20.884;2023-04-24T06:32:01;20.43;;;8.23;;
19262;SDS011;9765;52.354;20.884;2023-04-24T06:34:28;21.40;;;8.73;;
19262;SDS011;9765;52.354;20.884;2023-04-24T06:36:57;24.37;;;7.77;;
19262;SDS011;9765;52.354;20.884;2023-04-24T06:39:23;20.83;;;8.60;;
19262;SDS011;9765;52.354;20.884;2023-04-24T06:41:50;22.90;;;8.20;;
19262;SDS011;9765;52.354;20.884;2023-04-24T06:44:17;26.27;;;9.20;;
19262;SDS011;9765;52.354;20.884;2023-04-24T06:46:44;31.57;;;9.63;;
19262;SDS011;9765;52.354;20.884;2023-04-24T06:49:10;22.97;;;8.10;;
19262;SDS011;9765;52.354;20.884;2023-04-24T06:51:40;28.20;;;8.17;;
19262;SDS011;9765;52.354;20.884;2023-04-24T06:54:09;18.80;;;8.57;;
19262;SDS011;9765;52.354;20.884;2023-04-24T06:56:36;30.07;;;8.77;;
19262;SDS011;9765;52.354;20.884;2023-04-24T06:59:03;27.43;;;7.87;;
19262;SDS011;9765;52.354;20.884;2023-04-24T07:01:30;23.20;;;8.20;;
19262;SDS011;9765;52.354;20.884;2023-04-24T07:03:57;30.87;;;8.80;;
19262;SDS011;9765;52.354;20.884;2023-04-24T07:06:24;24.93;;;8.63;;
19262;SDS011;9765;52.354;20.884;2023-04-24T07:08:52;26.27;;;8.43;;
19262;SDS011;9765;52.354;20.884;2023-04-24T07:11:21;29.33;;;7.43;;
19262;SDS011;9765;52.354;20.884;2023-04-24T07:13:48;28.97;;;8.33;;
19262;SDS011;9765;52.354;20.884;2023-04-24T07:16:15;32.13;;;8.20;;
19262;SDS011;9765;52.354;20.884;2023-04-24T07:18:41;24.03;;;8.73;;
19262;SDS011;9765;52.354;20.884;2023-04-24T07:21:08;23.13;;;7.43;;
19262;SDS011;9765;52.354;20.884;2023-04-24T07:23:35;26.53;;;8.10;;
19262;SDS011;9765;52.354;20.884;2023-04-24T07:26:02;26.20;;;7.27;;
19262;SDS011;9765;52.354;20.884;2023-04-24T07:28:31;31.70;;;8.03;;
19262;SDS011;9765;52.354;20.884;2023-04-24T07:30:57;22.87;;;7.60;;
19262;SDS011;9765;52.354;20.884;2023-04-24T07:33:24;30.47;;;8.53;;
19262;SDS011;9765;52.354;20.884;2023-04-24T07:35:54;32.13;;;9.10;;
19262;SDS011;9765;52.354;20.884;2023-04-24T07:38:21;26.67;;;8.20;;
19262;SDS011;9765;52.354;20.884;2023-04-24T07:40:48;22.37;;;7.90;;
19262;SDS011;9765;52.354;20.884;2023-04-24T07:43:15;26.60;;;8.10;;
19262;SDS011;9765;52.354;20.884;2023-04-24T07:45:43;40.50;;;8.90;;
19262;SDS011;9765;52.354;20.884;2023-04-24T07:48:10;25.80;;;8.30;;
19262;SDS011;9765;52.354;20.884;2023-04-24T07:50:41;51.73;;;9.30;;
19262;SDS011;9765;52.354;20.884;2023-04-24T07:53:08;26.63;;;7.47;;
19262;SDS011;9765;52.354;20.884;2023-04-24T07:55:37;25.57;;;8.20;;
19262;SDS011;9765;52.354;20.884;2023-04-24T07:58:04;32.60;;;8.00;;
19262;SDS011;9765;52.354;20.884;2023-04-24T08:00:31;32.83;;;7.60;;
19262;SDS011;9765;52.354;20.884;2023-04-24T08:02:59;26.50;;;7.30;;
19262;SDS011;9765;52.354;20.884;2023-04-24T08:05:26;20.60;;;7.20;;
19262;SDS011;9765;52.354;20.884;2023-04-24T08:07:53;22.40;;;7.97;;
19262;SDS011;9765;52.354;20.884;2023-04-24T08:10:20;21.73;;;6.43;;
19262;SDS011;9765;52.354;20.884;2023-04-24T08:12:48;16.43;;;7.40;;
19262;SDS011;9765;52.354;20.884;2023-04-24T08:15:15;29.50;;;7.87;;
19262;SDS011;9765;52.354;20.884;2023-04-24T08:17:42;20.23;;;7.73;;
19262;SDS011;9765;52.354;20.884;2023-04-24T08:20:11;21.23;;;7.77;;
19262;SDS011;9765;52.354;20.884;2023-04-24T08:22:39;17.53;;;7.53;;
19262;SDS011;9765;52.354;20.884;2023-04-24T08:25:06;18.40;;;7.53;;
19262;SDS011;9765;52.354;20.884;2023-04-24T08:27:34;19.20;;;7.43;;
19262;SDS011;9765;52.354;20.884;2023-04-24T08:30:01;17.53;;;6.83;;
19262;SDS011;9765;52.354;20.884;2023-04-24T08:32:28;24.47;;;6.90;;
19262;SDS011;9765;52.354;20.884;2023-04-24T08:34:55;19.67;;;7.23;;
19262;SDS011;9765;52.354;20.884;2023-04-24T08:37:23;23.60;;;7.30;;
19262;SDS011;9765;52.354;20.884;2023-04-24T08:39:51;22.53;;;7.50;;
19262;SDS011;9765;52.354;20.884;2023-04-24T08:42:20;16.83;;;7.37;;
19262;SDS011;9765;52.354;20.884;2023-04-24T08:44:48;23.07;;;6.77;;
19262;SDS011;9765;52.354;20.884;2023-04-24T08:47:15;20.50;;;7.07;;
19262;SDS011;9765;52.354;20.884;2023-04-24T08:49:43;25.17;;;6.90;;
19262;SDS011;9765;52.354;20.884;2023-04-24T08:52:14;21.77;;;7.10;;
19262;SDS011;9765;52.354;20.884;2023-04-24T08:54:43;22.00;;;7.13;;
19262;SDS011;9765;52.354;20.884;2023-04-24T08:57:12;25.30;;;6.83;;
19262;SDS011;9765;52.354;20.884;2023-04-24T08:59:43;37.60;;;7.83;;
19262;SDS011;9765;52.354;20.884;2023-04-24T09:02:10;25.83;;;7.67;;
19262;SDS011;9765;52.354;20.884;2023-04-24T09:04:38;41.60;;;8.80;;
19262;SDS011;9765;52.354;20.884;2023-04-24T09:07:09;20.43;;;7.10;;
19262;SDS011;9765;52.354;20.884;2023-04-24T09:09:38;19.17;;;8.23;;
19262;SDS011;9765;52.354;20.884;2023-04-24T09:12:06;43.80;;;9.13;;
19262;SDS011;9765;52.354;20.884;2023-04-24T09:14:35;24.23;;;7.47;;
19262;SDS011;9765;52.354;20.884;2023-04-24T09:17:04;33.67;;;7.20;;
19262;SDS011;9765;52.354;20.884;2023-04-24T09:19:32;31.57;;;7.47;;
19262;SDS011;9765;52.354;20.884;2023-04-24T09:21:58;23.53;;;7.80;;
19262;SDS011;9765;52.354;20.884;2023-04-24T09:24:25;27.97;;;7.40;;
19262;SDS011;9765;52.354;20.884;2023-04-24T09:26:55;25.13;;;7.50;;
19262;SDS011;9765;52.354;20.884;2023-04-24T09:29:25;18.20;;;6.77;;
19262;SDS011;9765;52.354;20.884;2023-04-24T09:31:51;17.20;;;6.90;;
19262;SDS011;9765;52.354;20.884;2023-04-24T09:34:21;18.23;;;6.90;;
19262;SDS011;9765;52.354;20.884;2023-04-24T09:36:49;15.83;;;6.60;;
19262;SDS011;9765;52.354;20.884;2023-04-24T09:39:16;28.27;;;7.70;;
19262;SDS011;9765;52.354;20.884;2023-04-24T09:41:45;23.20;;;6.50;;
19262;SDS011;9765;52.354;20.884;2023-04-24T09:44:13;25.63;;;7.23;;
19262;SDS011;9765;52.354;20.884;2023-04-24T09:46:42;17.50;;;6.77;;
19262;SDS011;9765;52.354;20.884;2023-04-24T09:49:14;27.00;;;6.83;;
19262;SDS011;9765;52.354;20.884;2023-04-24T09:51:42;22.03;;;7.20;;
19262;SDS011;9765;52.354;20.884;2023-04-24T09:54:17;84.30;;;9.20;;
19262;SDS011;9765;52.354;20.884;2023-04-24T09:56:46;22.73;;;6.73;;
19262;SDS011;9765;52.354;20.884;2023-04-24T09:59:14;14.53;;;6.60;;
19262;SDS011;9765;52.354;20.884;2023-04-24T10:01:43;19.00;;;6.73;;
19262;SDS011;9765;52.354;20.884;2023-04-24T10:04:16;24.50;;;6.70;;
19262;SDS011;9765;52.354;20.884;2023-04-24T10:06:44;15.60;;;6.63;;
19262;SDS011;9765;52.354;20.884;2023-04-24T10:09:11;23.40;;;6.00;;
19262;SDS011;9765;52.354;20.884;2023-04-24T10:11:40;17.07;;;5.80;;
19262;SDS011;9765;52.354;20.884;2023-04-24T10:14:09;32.80;;;6.50;;
19262;SDS011;9765;52.354;20.884;2023-04-24T10:16:37;19.33;;;6.10;;
19262;SDS011;9765;52.354;20.884;2023-04-24T10:19:06;17.20;;;5.87;;
19262;SDS011;9765;52.354;20.884;2023-04-24T10:21:34;43.53;;;7.53;;
19262;SDS011;9765;52.354;20.884;2023-04-24T10:24:03;19.53;;;5.80;;
19262;SDS011;9765;52.354;20.884;2023-04-24T10:26:32;9.23;;;4.27;;
19262;SDS011;9765;52.354;20.884;2023-04-24T10:29:00;10.90;;;4.30;;
19262;SDS011;9765;52.354;20.884;2023-04-24T10:31:29;11.93;;;4.43;;
19262;SDS011;9765;52.354;20.884;2023-04-24T10:33:58;14.33;;;4.60;;
19262;SDS011;9765;52.354;20.884;2023-04-24T10:36:30;12.50;;;4.17;;
19262;SDS011;9765;52.354;20.884;2023-04-24T10:38:59;15.23;;;4.80;;
19262;SDS011;9765;52.354;20.884;2023-04-24T10:41:28;10.83;;;4.47;;
19262;SDS011;9765;52.354;20.884;2023-04-24T10:44:06;7.40;;;3.87;;
19262;SDS011;9765;52.354;20.884;2023-04-24T10:46:34;13.70;;;4.20;;
19262;SDS011;9765;52.354;20.884;2023-04-24T10:49:03;16.17;;;4.80;;
19262;SDS011;9765;52.354;20.884;2023-04-24T10:51:44;8.97;;;4.83;;
19262;SDS011;9765;52.354;20.884;2023-04-24T10:54:22;13.97;;;4.47;;
19262;SDS011;9765;52.354;20.884;2023-04-24T10:56:50;7.53;;;4.20;;
19262;SDS011;9765;52.354;20.884;2023-04-24T10:59:23;9.67;;;3.83;;
19262;SDS011;9765;52.354;20.884;2023-04-24T11:01:52;14.07;;;4.13;;
19262;SDS011;9765;52.354;20.884;2023-04-24T11:04:28;15.60;;;4.53;;
19262;SDS011;9765;52.354;20.884;2023-04-24T11:06:57;13.40;;;4.30;;
19262;SDS011;9765;52.354;20.884;2023-04-24T11:09:26;12.57;;;4.63;;
19262;SDS011;9765;52.354;20.884;2023-04-24T11:12:02;8.63;;;4.10;;
19262;SDS011;9765;52.354;20.884;2023-04-24T11:14:31;22.37;;;5.13;;
19262;SDS011;9765;52.354;20.884;2023-04-24T11:17:29;9.30;;;4.30;;
19262;SDS011;9765;52.354;20.884;2023-04-24T11:20:00;14.63;;;4.97;;
19262;SDS011;9765;52.354;20.884;2023-04-24T11:22:30;11.85;;;4.70;;
19262;SDS011;9765;52.354;20.884;2023-04-24T11:25:00;12.97;;;5.10;;
19262;SDS011;9765;52.354;20.884;2023-04-24T11:27:29;10.73;;;4.80;;
19262;SDS011;9765;52.354;20.884;2023-04-24T11:30:00;17.63;;;5.47;;
19262;SDS011;9765;52.354;20.884;2023-04-24T11:32:29;10.33;;;4.23;;
19262;SDS011;9765;52.354;20.884;2023-04-24T11:35:01;12.03;;;5.33;;
19262;SDS011;9765;52.354;20.884;2023-04-24T11:37:36;13.93;;;5.53;;
19262;SDS011;9765;52.354;20.884;2023-04-24T11:40:04;16.27;;;5.30;;
19262;SDS011;9765;52.354;20.884;2023-04-24T11:42:33;20.83;;;5.37;;
19262;SDS011;9765;52.354;20.884;2023-04-24T11:45:00;14.63;;;5.60;;
19262;SDS011;9765;52.354;20.884;2023-04-24T11:47:29;9.27;;;5.10;;
19262;SDS011;9765;52.354;20.884;2023-04-24T11:49:56;10.97;;;5.10;;
19262;SDS011;9765;52.354;20.884;2023-04-24T11:52:23;10.77;;;4.43;;
19262;SDS011;9765;52.354;20.884;2023-04-24T11:54:51;9.47;;;5.10;;
19262;SDS011;9765;52.354;20.884;2023-04-24T11:57:19;11.00;;;4.63;;
19262;SDS011;9765;52.354;20.884;2023-04-24T11:59:46;9.67;;;4.50;;
19262;SDS011;9765;52.354;20.884;2023-04-24T12:02:20;9.67;;;4.43;;
19262;SDS011;9765;52.354;20.884;2023-04-24T12:04:47;10.77;;;4.43;;
19262;SDS011;9765;52.354;20.884;2023-04-24T12:07:14;9.37;;;4.50;;
19262;SDS011;9765;52.354;20.884;2023-04-24T12:09:43;11.27;;;4.50;;
19262;SDS011;9765;52.354;20.884;2023-04-24T12:12:13;9.30;;;4.60;;
19262;SDS011;9765;52.354;20.884;2023-04-24T12:14:41;9.50;;;4.70;;
19262;SDS011;9765;52.354;20.884;2023-04-24T12:17:13;11.27;;;4.83;;
19262;SDS011;9765;52.354;20.884;2023-04-24T12:19:44;8.80;;;4.53;;
19262;SDS011;9765;52.354;20.884;2023-04-24T12:22:12;8.73;;;4.40;;
19262;SDS011;9765;52.354;20.884;2023-04-24T12:27:24;10.60;;;3.97;;
19262;SDS011;9765;52.354;20.884;2023-04-24T12:29:51;11.43;;;4.73;;
19262;SDS011;9765;52.354;20.884;2023-04-24T12:32:19;8.97;;;4.10;;
19262;SDS011;9765;52.354;20.884;2023-04-24T12:34:46;14.53;;;4.80;;
19262;SDS011;9765;52.354;20.884;2023-04-24T12:37:12;453.23;;;29.87;;
19262;SDS011;9765;52.354;20.884;2023-04-24T12:39:39;7.10;;;4.30;;
19262;SDS011;9765;52.354;20.884;2023-04-24T12:42:26;14.37;;;4.20;;
19262;SDS011;9765;52.354;20.884;2023-04-24T12:44:56;12.80;;;4.00;;
19262;SDS011;9765;52.354;20.884;2023-04-24T12:47:24;8.30;;;3.70;;
19262;SDS011;9765;52.354;20.884;2023-04-24T12:49:51;11.60;;;4.23;;
19262;SDS011;9765;52.354;20.884;2023-04-24T12:52:18;9.10;;;3.97;;
19262;SDS011;9765;52.354;20.884;2023-04-24T12:54:45;14.87;;;4.20;;
19262;SDS011;9765;52.354;20.884;2023-04-24T12:57:12;11.47;;;4.83;;
19262;SDS011;9765;52.354;20.884;2023-04-24T12:59:40;12.00;;;4.73;;
19262;SDS011;9765;52.354;20.884;2023-04-24T13:02:07;14.67;;;4.30;;
19262;SDS011;9765;52.354;20.884;2023-04-24T13:04:35;7.13;;;4.00;;
19262;SDS011;9765;52.354;20.884;2023-04-24T13:07:02;30.60;;;4.97;;
19262;SDS011;9765;52.354;20.884;2023-04-24T13:09:29;20.43;;;4.13;;
19262;SDS011;9765;52.354;20.884;2023-04-24T13:11:56;18.63;;;4.40;;
19262;SDS011;9765;52.354;20.884;2023-04-24T13:14:23;11.70;;;4.00;;
19262;SDS011;9765;52.354;20.884;2023-04-24T13:16:51;23.17;;;4.10;;
19262;SDS011;9765;52.354;20.884;2023-04-24T13:19:18;20.30;;;3.93;;
19262;SDS011;9765;52.354;20.884;2023-04-24T13:21:45;10.37;;;3.77;;
19262;SDS011;9765;52.354;20.884;2023-04-24T13:24:11;13.37;;;4.00;;
19262;SDS011;9765;52.354;20.884;2023-04-24T13:26:40;18.57;;;3.53;;
19262;SDS011;9765;52.354;20.884;2023-04-24T13:29:07;26.23;;;3.97;;
19262;SDS011;9765;52.354;20.884;2023-04-24T13:31:34;14.63;;;3.13;;
19262;SDS011;9765;52.354;20.884;2023-04-24T13:34:02;6.73;;;2.67;;
19262;SDS011;9765;52.354;20.884;2023-04-24T13:36:29;15.93;;;2.83;;
19262;SDS011;9765;52.354;20.884;2023-04-24T13:38:56;10.70;;;3.03;;
19262;SDS011;9765;52.354;20.884;2023-04-24T13:41:23;16.27;;;3.40;;
19262;SDS011;9765;52.354;20.884;2023-04-24T13:43:50;16.47;;;3.40;;
19262;SDS011;9765;52.354;20.884;2023-04-24T13:46:17;262.50;;;20.67;;
19262;SDS011;9765;52.354;20.884;2023-04-24T13:48:43;15.23;;;2.93;;
19262;SDS011;9765;52.354;20.884;2023-04-24T13:51:12;29.00;;;4.77;;
19262;SDS011;9765;52.354;20.884;2023-04-24T13:53:38;13.37;;;2.93;;
19262;SDS011;9765;52.354;20.884;2023-04-24T13:56:11;9.27;;;3.40;;
19262;SDS011;9765;52.354;20.884;2023-04-24T13:58:39;10.53;;;3.40;;
19262;SDS011;9765;52.354;20.884;2023-04-24T14:01:06;9.70;;;3.20;;
19262;SDS011;9765;52.354;20.884;2023-04-24T14:03:32;9.27;;;3.03;;
19262;SDS011;9765;52.354;20.884;2023-04-24T14:05:59;7.27;;;2.80;;
19262;SDS011;9765;52.354;20.884;2023-04-24T14:08:28;8.27;;;3.00;;
19262;SDS011;9765;52.354;20.884;2023-04-24T14:10:54;11.23;;;3.53;;
19262;SDS011;9765;52.354;20.884;2023-04-24T14:13:21;6.47;;;3.13;;
19262;SDS011;9765;52.354;20.884;2023-04-24T14:15:48;8.37;;;3.20;;
19262;SDS011;9765;52.354;20.884;2023-04-24T14:18:15;12.37;;;3.33;;
19262;SDS011;9765;52.354;20.884;2023-04-24T14:20:42;8.47;;;3.20;;
19262;SDS011;9765;52.354;20.884;2023-04-24T14:23:09;10.97;;;3.70;;
19262;SDS011;9765;52.354;20.884;2023-04-24T14:25:40;8.43;;;3.50;;
19262;SDS011;9765;52.354;20.884;2023-04-24T14:28:06;8.37;;;3.20;;
19262;SDS011;9765;52.354;20.884;2023-04-24T14:30:33;13.53;;;3.50;;
19262;SDS011;9765;52.354;20.884;2023-04-24T14:33:02;11.23;;;3.53;;
19262;SDS011;9765;52.354;20.884;2023-04-24T14:35:29;10.23;;;3.30;;
19262;SDS011;9765;52.354;20.884;2023-04-24T14:37:59;9.13;;;3.10;;
19262;SDS011;9765;52.354;20.884;2023-04-24T14:40:26;8.30;;;2.87;;
19262;SDS011;9765;52.354;20.884;2023-04-24T14:42:54;6.37;;;2.63;;
19262;SDS011;9765;52.354;20.884;2023-04-24T14:45:22;9.80;;;3.20;;
19262;SDS011;9765;52.354;20.884;2023-04-24T14:47:49;20.90;;;3.43;;
19262;SDS011;9765;52.354;20.884;2023-04-24T14:50:15;7.87;;;3.10;;
19262;SDS011;9765;52.354;20.884;2023-04-24T14:52:42;7.67;;;3.30;;
19262;SDS011;9765;52.354;20.884;2023-04-24T14:55:09;6.30;;;3.23;;
19262;SDS011;9765;52.354;20.884;2023-04-24T14:57:36;8.53;;;3.00;;
19262;SDS011;9765;52.354;20.884;2023-04-24T15:00:05;24.73;;;3.73;;
19262;SDS011;9765;52.354;20.884;2023-04-24T15:02:33;11.97;;;3.17;;
19262;SDS011;9765;52.354;20.884;2023-04-24T15:05:07;10.07;;;3.00;;
19262;SDS011;9765;52.354;20.884;2023-04-24T15:07:34;7.83;;;3.70;;
19262;SDS011;9765;52.354;20.884;2023-04-24T15:10:01;6.80;;;2.90;;
19262;SDS011;9765;52.354;20.884;2023-04-24T15:12:28;11.57;;;3.50;;
19262;SDS011;9765;52.354;20.884;2023-04-24T15:14:57;7.63;;;3.37;;
19262;SDS011;9765;52.354;20.884;2023-04-24T15:17:25;6.17;;;3.30;;
19262;SDS011;9765;52.354;20.884;2023-04-24T15:19:52;8.27;;;3.10;;
19262;SDS011;9765;52.354;20.884;2023-04-24T15:22:19;6.00;;;3.20;;
19262;SDS011;9765;52.354;20.884;2023-04-24T15:24:46;6.30;;;3.00;;
19262;SDS011;9765;52.354;20.884;2023-04-24T15:27:13;11.23;;;3.00;;
19262;SDS011;9765;52.354;20.884;2023-04-24T15:29:39;9.83;;;3.40;;
19262;SDS011;9765;52.354;20.884;2023-04-24T15:32:06;6.80;;;3.00;;
19262;SDS011;9765;52.354;20.884;2023-04-24T15:34:34;4.70;;;3.00;;
19262;SDS011;9765;52.354;20.884;2023-04-24T15:37:01;5.47;;;2.90;;
19262;SDS011;9765;52.354;20.884;2023-04-24T15:39:28;16.47;;;3.43;;
19262;SDS011;9765;52.354;20.884;2023-04-24T15:41:55;10.87;;;3.07;;
19262;SDS011;9765;52.354;20.884;2023-04-24T15:44:22;17.10;;;3.53;;
19262;SDS011;9765;52.354;20.884;2023-04-24T15:46:49;4.43;;;2.90;;
19262;SDS011;9765;52.354;20.884;2023-04-24T15:49:16;10.10;;;3.03;;
19262;SDS011;9765;52.354;20.884;2023-04-24T15:51:44;7.73;;;3.37;;
19262;SDS011;9765;52.354;20.884;2023-04-24T15:54:11;10.80;;;3.13;;
19262;SDS011;9765;52.354;20.884;2023-04-24T15:56:38;8.43;;;3.43;;
19262;SDS011;9765;52.354;20.884;2023-04-24T15:59:05;6.67;;;3.10;;
19262;SDS011;9765;52.354;20.884;2023-04-24T16:01:31;9.30;;;2.97;;
19262;SDS011;9765;52.354;20.884;2023-04-24T16:03:58;7.30;;;3.27;;
19262;SDS011;9765;52.354;20.884;2023-04-24T16:06:25;10.27;;;3.30;;
19262;SDS011;9765;52.354;20.884;2023-04-24T16:08:54;10.70;;;3.93;;
19262;SDS011;9765;52.354;20.884;2023-04-24T16:11:21;7.30;;;3.10;;
19262;SDS011;9765;52.354;20.884;2023-04-24T16:13:47;11.97;;;3.50;;
19262;SDS011;9765;52.354;20.884;2023-04-24T16:16:14;9.43;;;3.20;;
19262;SDS011;9765;52.354;20.884;2023-04-24T16:18:41;5.10;;;2.90;;
19262;SDS011;9765;52.354;20.884;2023-04-24T16:21:08;9.70;;;3.50;;
19262;SDS011;9765;52.354;20.884;2023-04-24T16:23:34;7.67;;;3.27;;
19262;SDS011;9765;52.354;20.884;2023-04-24T16:26:03;15.77;;;3.13;;
19262;SDS011;9765;52.354;20.884;2023-04-24T16:28:32;14.60;;;3.30;;
19262;SDS011;9765;52.354;20.884;2023-04-24T16:30:59;7.23;;;2.83;;
19262;SDS011;9765;52.354;20.884;2023-04-24T16:33:26;11.20;;;3.30;;
19262;SDS011;9765;52.354;20.884;2023-04-24T16:35:54;6.47;;;3.20;;
19262;SDS011;9765;52.354;20.884;2023-04-24T16:38:21;14.20;;;3.40;;
19262;SDS011;9765;52.354;20.884;2023-04-24T16:40:49;10.67;;;3.40;;
19262;SDS011;9765;52.354;20.884;2023-04-24T16:43:17;13.93;;;3.80;;
19262;SDS011;9765;52.354;20.884;2023-04-24T16:45:44;8.90;;;3.27;;
19262;SDS011;9765;52.354;20.884;2023-04-24T16:48:10;9.60;;;3.20;;
19262;SDS011;9765;52.354;20.884;2023-04-24T16:50:37;8.27;;;3.73;;
19262;SDS011;9765;52.354;20.884;2023-04-24T16:53:04;8.60;;;3.50;;
19262;SDS011;9765;52.354;20.884;2023-04-24T16:55:31;9.70;;;3.73;;
19262;SDS011;9765;52.354;20.884;2023-04-24T16:57:58;10.27;;;3.27;;
19262;SDS011;9765;52.354;20.884;2023-04-24T17:00:26;7.00;;;3.40;;
19262;SDS011;9765;52.354;20.884;2023-04-24T17:02:53;11.67;;;3.93;;
19262;SDS011;9765;52.354;20.884;2023-04-24T17:05:19;9.07;;;3.37;;
19262;SDS011;9765;52.354;20.884;2023-04-24T17:07:47;11.13;;;3.77;;
19262;SDS011;9765;52.354;20.884;2023-04-24T17:10:17;21.83;;;4.20;;
19262;SDS011;9765;52.354;20.884;2023-04-24T17:12:44;24.53;;;4.23;;
19262;SDS011;9765;52.354;20.884;2023-04-24T17:15:10;18.20;;;3.90;;
19262;SDS011;9765;52.354;20.884;2023-04-24T17:17:38;17.37;;;4.07;;
19262;SDS011;9765;52.354;20.884;2023-04-24T17:20:08;16.47;;;4.00;;
19262;SDS011;9765;52.354;20.884;2023-04-24T17:22:35;7.00;;;3.77;;
19262;SDS011;9765;52.354;20.884;2023-04-24T17:25:02;17.90;;;4.63;;
